sensor_id;sensor_type;location;lat;lon;timestamp;temperature;humidity
45008;DHT22;30743;52.008;5.644;2022-12-13T00:00:13;5.40;92.30
45008;DHT22;30743;52.008;5.644;2022-12-13T00:02:40;5.40;92.10
45008;DHT22;30743;52.008;5.644;2022-12-13T00:05:07;5.40;92.00
45008;DHT22;30743;52.008;5.644;2022-12-13T00:07:33;5.30;91.90
45008;DHT22;30743;52.008;5.644;2022-12-13T00:09:59;5.30;92.40
45008;DHT22;30743;52.008;5.644;2022-12-13T00:12:25;5.30;92.50
45008;DHT22;30743;52.008;5.644;2022-12-13T00:14:50;5.30;92.40
45008;DHT22;30743;52.008;5.644;2022-12-13T00:17:16;5.20;92.20
45008;DHT22;30743;52.008;5.644;2022-12-13T00:19:41;5.20;92.10
45008;DHT22;30743;52.008;5.644;2022-12-13T00:22:07;5.30;92.30
45008;DHT22;30743;52.008;5.644;2022-12-13T00:24:32;5.30;92.20
45008;DHT22;30743;52.008;5.644;2022-12-13T00:26:58;5.30;92.10
45008;DHT22;30743;52.008;5.644;2022-12-13T00:29:23;5.20;92.20
45008;DHT22;30743;52.008;5.644;2022-12-13T00:31:49;5.30;92.30
45008;DHT22;30743;52.008;5.644;2022-12-13T00:34:14;5.30;92.40
45008;DHT22;30743;52.008;5.644;2022-12-13T00:36:40;5.30;92.50
45008;DHT22;30743;52.008;5.644;2022-12-13T00:39:05;5.20;92.70
45008;DHT22;30743;52.008;5.644;2022-12-13T00:41:33;5.20;92.20
45008;DHT22;30743;52.008;5.644;2022-12-13T00:44:01;5.20;92.10
45008;DHT22;30743;52.008;5.644;2022-12-13T00:46:27;5.20;91.90
45008;DHT22;30743;52.008;5.644;2022-12-13T00:48:55;5.20;91.60
45008;DHT22;30743;52.008;5.644;2022-12-13T00:51:22;5.20;91.70
45008;DHT22;30743;52.008;5.644;2022-12-13T00:53:48;5.20;91.60
45008;DHT22;30743;52.008;5.644;2022-12-13T00:56:17;5.20;91.60
45008;DHT22;30743;52.008;5.644;2022-12-13T00:58:43;5.10;91.60
45008;DHT22;30743;52.008;5.644;2022-12-13T01:01:12;5.10;91.80
45008;DHT22;30743;52.008;5.644;2022-12-13T01:03:38;5.10;92.00
45008;DHT22;30743;52.008;5.644;2022-12-13T01:06:19;5.10;92.00
45008;DHT22;30743;52.008;5.644;2022-12-13T01:08:46;5.10;92.40
45008;DHT22;30743;52.008;5.644;2022-12-13T01:11:12;5.10;92.20
45008;DHT22;30743;52.008;5.644;2022-12-13T01:13:38;5.00;92.20
45008;DHT22;30743;52.008;5.644;2022-12-13T01:16:06;5.00;91.90
45008;DHT22;30743;52.008;5.644;2022-12-13T01:18:32;5.00;91.90
45008;DHT22;30743;52.008;5.644;2022-12-13T01:23:27;5.00;91.80
45008;DHT22;30743;52.008;5.644;2022-12-13T01:25:53;5.00;91.80
45008;DHT22;30743;52.008;5.644;2022-12-13T01:28:20;5.00;91.90
45008;DHT22;30743;52.008;5.644;2022-12-13T01:30:56;5.00;92.00
45008;DHT22;30743;52.008;5.644;2022-12-13T01:33:23;5.00;92.00
45008;DHT22;30743;52.008;5.644;2022-12-13T01:35:48;5.00;91.90
45008;DHT22;30743;52.008;5.644;2022-12-13T01:38:14;4.90;91.80
45008;DHT22;30743;52.008;5.644;2022-12-13T01:40:50;4.90;91.80
45008;DHT22;30743;52.008;5.644;2022-12-13T01:43:27;4.90;91.80
45008;DHT22;30743;52.008;5.644;2022-12-13T01:45:53;4.90;91.80
45008;DHT22;30743;52.008;5.644;2022-12-13T01:48:23;4.90;91.80
45008;DHT22;30743;52.008;5.644;2022-12-13T01:50:52;5.00;91.80
45008;DHT22;30743;52.008;5.644;2022-12-13T01:53:26;4.90;91.70
45008;DHT22;30743;52.008;5.644;2022-12-13T01:55:56;4.90;91.70
45008;DHT22;30743;52.008;5.644;2022-12-13T01:58:22;4.90;91.70
45008;DHT22;30743;52.008;5.644;2022-12-13T02:00:49;4.90;91.70
45008;DHT22;30743;52.008;5.644;2022-12-13T02:03:16;4.90;91.70
45008;DHT22;30743;52.008;5.644;2022-12-13T02:06:06;4.80;91.80
45008;DHT22;30743;52.008;5.644;2022-12-13T02:08:36;4.80;91.80
45008;DHT22;30743;52.008;5.644;2022-12-13T02:11:03;4.80;91.80
45008;DHT22;30743;52.008;5.644;2022-12-13T02:13:29;4.70;91.80
45008;DHT22;30743;52.008;5.644;2022-12-13T02:30:25;4.80;91.80
45008;DHT22;30743;52.008;5.644;2022-12-13T02:35:25;4.70;91.40
45008;DHT22;30743;52.008;5.644;2022-12-13T02:38:01;4.60;91.40
45008;DHT22;30743;52.008;5.644;2022-12-13T02:40:41;4.70;91.90
45008;DHT22;30743;52.008;5.644;2022-12-13T02:43:22;4.70;91.50
45008;DHT22;30743;52.008;5.644;2022-12-13T02:45:57;4.60;91.40
45008;DHT22;30743;52.008;5.644;2022-12-13T02:48:27;4.60;91.30
45008;DHT22;30743;52.008;5.644;2022-12-13T02:50:55;4.60;91.30
45008;DHT22;30743;52.008;5.644;2022-12-13T02:53:22;4.60;91.40
45008;DHT22;30743;52.008;5.644;2022-12-13T02:55:48;4.50;91.30
45008;DHT22;30743;52.008;5.644;2022-12-13T02:58:28;4.50;91.20
45008;DHT22;30743;52.008;5.644;2022-12-13T03:03:51;4.50;91.20
45008;DHT22;30743;52.008;5.644;2022-12-13T03:06:54;4.50;91.40
45008;DHT22;30743;52.008;5.644;2022-12-13T03:09:31;4.50;91.60
45008;DHT22;30743;52.008;5.644;2022-12-13T03:15:28;4.50;91.40
45008;DHT22;30743;52.008;5.644;2022-12-13T03:17:59;4.50;91.40
45008;DHT22;30743;52.008;5.644;2022-12-13T03:20:28;4.50;91.40
45008;DHT22;30743;52.008;5.644;2022-12-13T03:22:55;4.50;91.20
45008;DHT22;30743;52.008;5.644;2022-12-13T03:25:26;4.50;91.10
45008;DHT22;30743;52.008;5.644;2022-12-13T03:27:52;4.50;91.10
45008;DHT22;30743;52.008;5.644;2022-12-13T03:30:17;4.50;91.10
45008;DHT22;30743;52.008;5.644;2022-12-13T03:32:43;4.50;90.90
45008;DHT22;30743;52.008;5.644;2022-12-13T03:35:08;4.40;90.70
45008;DHT22;30743;52.008;5.644;2022-12-13T03:37:34;4.30;90.90
45008;DHT22;30743;52.008;5.644;2022-12-13T03:40:00;4.40;91.00
45008;DHT22;30743;52.008;5.644;2022-12-13T03:42:26;4.40;91.10
45008;DHT22;30743;52.008;5.644;2022-12-13T03:44:51;4.40;91.00
45008;DHT22;30743;52.008;5.644;2022-12-13T03:47:17;4.30;90.90
45008;DHT22;30743;52.008;5.644;2022-12-13T03:49:42;4.30;91.00
45008;DHT22;30743;52.008;5.644;2022-12-13T03:52:08;4.30;91.00
45008;DHT22;30743;52.008;5.644;2022-12-13T03:54:34;4.30;91.10
45008;DHT22;30743;52.008;5.644;2022-12-13T03:56:59;4.30;91.40
45008;DHT22;30743;52.008;5.644;2022-12-13T03:59:25;4.30;91.40
45008;DHT22;30743;52.008;5.644;2022-12-13T04:01:54;4.30;91.40
45008;DHT22;30743;52.008;5.644;2022-12-13T04:04:19;4.30;91.50
45008;DHT22;30743;52.008;5.644;2022-12-13T04:06:44;4.30;91.40
45008;DHT22;30743;52.008;5.644;2022-12-13T04:09:10;4.40;91.30
45008;DHT22;30743;52.008;5.644;2022-12-13T04:11:35;4.40;91.30
45008;DHT22;30743;52.008;5.644;2022-12-13T04:14:19;4.40;91.30
45008;DHT22;30743;52.008;5.644;2022-12-13T04:16:45;4.30;91.30
45008;DHT22;30743;52.008;5.644;2022-12-13T04:19:10;4.30;91.20
45008;DHT22;30743;52.008;5.644;2022-12-13T04:21:36;4.30;91.20
45008;DHT22;30743;52.008;5.644;2022-12-13T04:24:02;4.20;91.20
45008;DHT22;30743;52.008;5.644;2022-12-13T04:26:28;4.30;91.20
45008;DHT22;30743;52.008;5.644;2022-12-13T04:28:53;4.30;91.20
45008;DHT22;30743;52.008;5.644;2022-12-13T04:31:19;4.20;91.10
45008;DHT22;30743;52.008;5.644;2022-12-13T04:33:44;4.20;91.20
45008;DHT22;30743;52.008;5.644;2022-12-13T04:36:10;4.20;91.10
45008;DHT22;30743;52.008;5.644;2022-12-13T04:38:35;4.30;91.10
45008;DHT22;30743;52.008;5.644;2022-12-13T04:41:06;4.20;91.30
45008;DHT22;30743;52.008;5.644;2022-12-13T04:43:31;4.20;91.30
45008;DHT22;30743;52.008;5.644;2022-12-13T04:45:57;4.20;91.70
45008;DHT22;30743;52.008;5.644;2022-12-13T04:48:23;4.20;91.30
45008;DHT22;30743;52.008;5.644;2022-12-13T04:50:48;4.20;91.30
45008;DHT22;30743;52.008;5.644;2022-12-13T04:53:14;4.20;91.40
45008;DHT22;30743;52.008;5.644;2022-12-13T04:55:42;4.30;91.50
45008;DHT22;30743;52.008;5.644;2022-12-13T04:58:08;4.20;91.10
45008;DHT22;30743;52.008;5.644;2022-12-13T05:00:33;4.20;91.10
45008;DHT22;30743;52.008;5.644;2022-12-13T05:02:59;4.20;91.10
45008;DHT22;30743;52.008;5.644;2022-12-13T05:05:25;4.20;91.10
45008;DHT22;30743;52.008;5.644;2022-12-13T05:07:50;4.20;91.00
45008;DHT22;30743;52.008;5.644;2022-12-13T05:10:16;4.20;91.10
45008;DHT22;30743;52.008;5.644;2022-12-13T05:12:41;4.20;91.20
45008;DHT22;30743;52.008;5.644;2022-12-13T05:15:07;4.10;91.20
45008;DHT22;30743;52.008;5.644;2022-12-13T05:17:33;4.10;91.10
45008;DHT22;30743;52.008;5.644;2022-12-13T05:19:59;4.20;91.20
45008;DHT22;30743;52.008;5.644;2022-12-13T05:22:24;4.20;91.30
45008;DHT22;30743;52.008;5.644;2022-12-13T05:24:50;4.20;91.40
45008;DHT22;30743;52.008;5.644;2022-12-13T05:27:16;4.20;91.50
45008;DHT22;30743;52.008;5.644;2022-12-13T05:29:41;4.20;91.50
45008;DHT22;30743;52.008;5.644;2022-12-13T05:32:07;4.20;91.50
45008;DHT22;30743;52.008;5.644;2022-12-13T05:34:32;4.30;91.60
45008;DHT22;30743;52.008;5.644;2022-12-13T05:36:58;4.30;91.50
45008;DHT22;30743;52.008;5.644;2022-12-13T05:39:23;4.30;91.50
45008;DHT22;30743;52.008;5.644;2022-12-13T05:41:50;4.30;91.50
45008;DHT22;30743;52.008;5.644;2022-12-13T05:44:15;4.30;91.50
45008;DHT22;30743;52.008;5.644;2022-12-13T05:46:41;4.30;91.60
45008;DHT22;30743;52.008;5.644;2022-12-13T05:49:06;4.20;91.60
45008;DHT22;30743;52.008;5.644;2022-12-13T05:51:32;4.30;91.70
45008;DHT22;30743;52.008;5.644;2022-12-13T05:53:57;4.30;91.90
45008;DHT22;30743;52.008;5.644;2022-12-13T05:56:23;4.30;92.00
45008;DHT22;30743;52.008;5.644;2022-12-13T05:58:48;4.40;92.00
45008;DHT22;30743;52.008;5.644;2022-12-13T06:01:14;4.40;92.00
45008;DHT22;30743;52.008;5.644;2022-12-13T06:03:41;4.40;92.10
45008;DHT22;30743;52.008;5.644;2022-12-13T06:06:08;4.40;92.20
45008;DHT22;30743;52.008;5.644;2022-12-13T06:08:34;4.40;91.90
45008;DHT22;30743;52.008;5.644;2022-12-13T06:11:01;4.50;91.80
45008;DHT22;30743;52.008;5.644;2022-12-13T06:13:27;4.50;91.80
45008;DHT22;30743;52.008;5.644;2022-12-13T06:15:53;4.50;91.80
45008;DHT22;30743;52.008;5.644;2022-12-13T06:18:19;4.40;91.80
45008;DHT22;30743;52.008;5.644;2022-12-13T06:20:54;4.50;91.80
45008;DHT22;30743;52.008;5.644;2022-12-13T06:23:19;4.50;91.70
45008;DHT22;30743;52.008;5.644;2022-12-13T06:25:45;4.50;91.40
45008;DHT22;30743;52.008;5.644;2022-12-13T06:28:10;4.60;91.40
45008;DHT22;30743;52.008;5.644;2022-12-13T06:30:36;4.60;91.40
45008;DHT22;30743;52.008;5.644;2022-12-13T06:33:02;4.60;91.50
45008;DHT22;30743;52.008;5.644;2022-12-13T06:35:27;4.60;91.50
45008;DHT22;30743;52.008;5.644;2022-12-13T06:37:53;4.70;91.40
45008;DHT22;30743;52.008;5.644;2022-12-13T06:40:18;4.60;91.20
45008;DHT22;30743;52.008;5.644;2022-12-13T06:42:44;4.60;91.20
45008;DHT22;30743;52.008;5.644;2022-12-13T06:45:09;4.60;91.20
45008;DHT22;30743;52.008;5.644;2022-12-13T06:47:35;4.60;91.10
45008;DHT22;30743;52.008;5.644;2022-12-13T06:50:01;4.60;90.80
45008;DHT22;30743;52.008;5.644;2022-12-13T06:52:26;4.70;90.80
45008;DHT22;30743;52.008;5.644;2022-12-13T06:54:52;4.60;90.40
45008;DHT22;30743;52.008;5.644;2022-12-13T06:57:18;4.60;90.60
45008;DHT22;30743;52.008;5.644;2022-12-13T06:59:43;4.50;90.60
45008;DHT22;30743;52.008;5.644;2022-12-13T07:02:09;4.50;90.70
45008;DHT22;30743;52.008;5.644;2022-12-13T07:04:35;4.60;90.90
45008;DHT22;30743;52.008;5.644;2022-12-13T07:07:01;4.50;90.90
45008;DHT22;30743;52.008;5.644;2022-12-13T07:09:27;4.50;91.00
45008;DHT22;30743;52.008;5.644;2022-12-13T07:11:52;4.50;91.00
45008;DHT22;30743;52.008;5.644;2022-12-13T07:14:18;4.60;91.00
45008;DHT22;30743;52.008;5.644;2022-12-13T07:16:44;4.60;90.90
45008;DHT22;30743;52.008;5.644;2022-12-13T07:19:10;4.60;90.80
45008;DHT22;30743;52.008;5.644;2022-12-13T07:21:35;4.50;90.60
45008;DHT22;30743;52.008;5.644;2022-12-13T07:24:02;4.60;90.60
45008;DHT22;30743;52.008;5.644;2022-12-13T07:26:28;4.60;90.40
45008;DHT22;30743;52.008;5.644;2022-12-13T07:28:54;4.60;90.30
45008;DHT22;30743;52.008;5.644;2022-12-13T07:31:19;4.60;90.30
45008;DHT22;30743;52.008;5.644;2022-12-13T07:33:45;4.60;90.30
45008;DHT22;30743;52.008;5.644;2022-12-13T07:36:16;4.60;90.30
45008;DHT22;30743;52.008;5.644;2022-12-13T07:38:41;4.50;90.40
45008;DHT22;30743;52.008;5.644;2022-12-13T07:41:07;4.50;90.60
45008;DHT22;30743;52.008;5.644;2022-12-13T07:43:34;4.50;90.80
45008;DHT22;30743;52.008;5.644;2022-12-13T07:46:02;4.60;90.80
45008;DHT22;30743;52.008;5.644;2022-12-13T07:48:27;4.60;90.70
45008;DHT22;30743;52.008;5.644;2022-12-13T07:50:58;4.50;90.70
45008;DHT22;30743;52.008;5.644;2022-12-13T07:53:24;4.50;90.80
45008;DHT22;30743;52.008;5.644;2022-12-13T07:55:49;4.50;90.90
45008;DHT22;30743;52.008;5.644;2022-12-13T07:58:15;4.60;91.00
45008;DHT22;30743;52.008;5.644;2022-12-13T08:00:43;4.60;91.00
45008;DHT22;30743;52.008;5.644;2022-12-13T08:03:09;4.60;91.10
45008;DHT22;30743;52.008;5.644;2022-12-13T08:05:35;4.70;91.20
45008;DHT22;30743;52.008;5.644;2022-12-13T08:08:02;4.70;91.30
45008;DHT22;30743;52.008;5.644;2022-12-13T08:10:28;4.80;91.50
45008;DHT22;30743;52.008;5.644;2022-12-13T08:12:54;4.80;91.50
45008;DHT22;30743;52.008;5.644;2022-12-13T08:15:19;4.80;91.80
45008;DHT22;30743;52.008;5.644;2022-12-13T08:17:46;4.90;91.90
45008;DHT22;30743;52.008;5.644;2022-12-13T08:20:12;4.90;92.10
45008;DHT22;30743;52.008;5.644;2022-12-13T08:22:37;5.00;92.10
45008;DHT22;30743;52.008;5.644;2022-12-13T08:25:03;5.10;92.20
45008;DHT22;30743;52.008;5.644;2022-12-13T08:27:29;5.10;91.80
45008;DHT22;30743;52.008;5.644;2022-12-13T08:29:55;5.10;91.60
45008;DHT22;30743;52.008;5.644;2022-12-13T08:32:20;5.20;91.60
45008;DHT22;30743;52.008;5.644;2022-12-13T08:34:46;5.30;91.40
45008;DHT22;30743;52.008;5.644;2022-12-13T08:37:12;5.20;91.20
45008;DHT22;30743;52.008;5.644;2022-12-13T08:39:38;5.30;91.50
45008;DHT22;30743;52.008;5.644;2022-12-13T08:42:13;5.30;91.80
45008;DHT22;30743;52.008;5.644;2022-12-13T08:44:39;5.40;92.40
45008;DHT22;30743;52.008;5.644;2022-12-13T08:47:05;5.40;93.00
45008;DHT22;30743;52.008;5.644;2022-12-13T08:49:30;5.50;93.60
45008;DHT22;30743;52.008;5.644;2022-12-13T08:51:57;5.60;94.40
45008;DHT22;30743;52.008;5.644;2022-12-13T08:54:22;5.80;94.40
45008;DHT22;30743;52.008;5.644;2022-12-13T08:56:48;5.80;94.70
45008;DHT22;30743;52.008;5.644;2022-12-13T08:59:13;6.00;94.70
45008;DHT22;30743;52.008;5.644;2022-12-13T09:01:39;6.10;94.40
45008;DHT22;30743;52.008;5.644;2022-12-13T09:04:04;6.20;94.70
45008;DHT22;30743;52.008;5.644;2022-12-13T09:06:30;6.30;94.10
45008;DHT22;30743;52.008;5.644;2022-12-13T09:08:55;6.50;95.10
45008;DHT22;30743;52.008;5.644;2022-12-13T09:11:21;6.60;95.30
45008;DHT22;30743;52.008;5.644;2022-12-13T09:13:47;6.80;95.60
45008;DHT22;30743;52.008;5.644;2022-12-13T09:16:15;7.00;96.10
45008;DHT22;30743;52.008;5.644;2022-12-13T09:18:43;7.20;95.70
45008;DHT22;30743;52.008;5.644;2022-12-13T09:21:10;7.40;95.70
45008;DHT22;30743;52.008;5.644;2022-12-13T09:23:37;7.60;94.70
45008;DHT22;30743;52.008;5.644;2022-12-13T09:26:02;7.90;94.90
45008;DHT22;30743;52.008;5.644;2022-12-13T09:28:29;8.20;94.40
45008;DHT22;30743;52.008;5.644;2022-12-13T09:30:56;8.50;94.10
45008;DHT22;30743;52.008;5.644;2022-12-13T09:33:22;8.80;93.40
45008;DHT22;30743;52.008;5.644;2022-12-13T09:35:47;9.30;94.20
45008;DHT22;30743;52.008;5.644;2022-12-13T09:38:13;10.20;94.00
45008;DHT22;30743;52.008;5.644;2022-12-13T09:40:40;11.30;92.80
45008;DHT22;30743;52.008;5.644;2022-12-13T09:43:12;12.50;91.70
45008;DHT22;30743;52.008;5.644;2022-12-13T09:45:43;13.60;90.20
45008;DHT22;30743;52.008;5.644;2022-12-13T09:48:15;14.50;87.50
45008;DHT22;30743;52.008;5.644;2022-12-13T09:50:41;15.20;86.70
45008;DHT22;30743;52.008;5.644;2022-12-13T09:53:07;15.70;84.40
45008;DHT22;30743;52.008;5.644;2022-12-13T09:55:44;16.00;82.80
45008;DHT22;30743;52.008;5.644;2022-12-13T09:58:26;16.30;81.90
45008;DHT22;30743;52.008;5.644;2022-12-13T10:00:54;16.60;81.10
45008;DHT22;30743;52.008;5.644;2022-12-13T10:03:22;17.10;79.80
45008;DHT22;30743;52.008;5.644;2022-12-13T10:05:57;17.30;78.20
45008;DHT22;30743;52.008;5.644;2022-12-13T10:08:27;17.60;77.70
45008;DHT22;30743;52.008;5.644;2022-12-13T10:10:56;17.50;76.10
45008;DHT22;30743;52.008;5.644;2022-12-13T10:13:42;17.40;75.80
45008;DHT22;30743;52.008;5.644;2022-12-13T10:16:18;17.10;74.80
45008;DHT22;30743;52.008;5.644;2022-12-13T10:18:44;16.60;74.20
45008;DHT22;30743;52.008;5.644;2022-12-13T10:21:33;16.50;75.40
45008;DHT22;30743;52.008;5.644;2022-12-13T10:24:11;15.60;75.50
45008;DHT22;30743;52.008;5.644;2022-12-13T10:26:38;15.20;76.50
45008;DHT22;30743;52.008;5.644;2022-12-13T10:29:05;14.80;77.00
45008;DHT22;30743;52.008;5.644;2022-12-13T10:31:38;14.50;76.80
45008;DHT22;30743;52.008;5.644;2022-12-13T10:34:12;14.10;77.50
45008;DHT22;30743;52.008;5.644;2022-12-13T10:36:38;13.90;77.80
45008;DHT22;30743;52.008;5.644;2022-12-13T10:39:07;13.50;78.10
45008;DHT22;30743;52.008;5.644;2022-12-13T10:41:38;13.30;79.00
45008;DHT22;30743;52.008;5.644;2022-12-13T10:44:23;13.00;79.50
45008;DHT22;30743;52.008;5.644;2022-12-13T10:49:56;12.80;80.40
45008;DHT22;30743;52.008;5.644;2022-12-13T10:52:40;12.70;80.20
45008;DHT22;30743;52.008;5.644;2022-12-13T10:55:25;12.50;81.00
45008;DHT22;30743;52.008;5.644;2022-12-13T10:57:53;12.70;81.70
45008;DHT22;30743;52.008;5.644;2022-12-13T11:03:02;12.90;81.20
45008;DHT22;30743;52.008;5.644;2022-12-13T11:05:30;13.10;80.90
45008;DHT22;30743;52.008;5.644;2022-12-13T11:08:22;13.20;81.00
45008;DHT22;30743;52.008;5.644;2022-12-13T11:11:02;13.10;80.50
45008;DHT22;30743;52.008;5.644;2022-12-13T11:13:35;12.90;81.40
45008;DHT22;30743;52.008;5.644;2022-12-13T11:16:04;12.80;81.80
45008;DHT22;30743;52.008;5.644;2022-12-13T11:18:40;12.80;80.60
45008;DHT22;30743;52.008;5.644;2022-12-13T11:21:05;12.80;81.40
45008;DHT22;30743;52.008;5.644;2022-12-13T11:24:00;13.00;81.20
45008;DHT22;30743;52.008;5.644;2022-12-13T11:26:26;12.80;81.30
45008;DHT22;30743;52.008;5.644;2022-12-13T11:29:18;12.90;81.70
45008;DHT22;30743;52.008;5.644;2022-12-13T11:37:49;12.70;80.90
45008;DHT22;30743;52.008;5.644;2022-12-13T11:40:24;12.60;81.00
45008;DHT22;30743;52.008;5.644;2022-12-13T11:42:56;12.50;82.00
45008;DHT22;30743;52.008;5.644;2022-12-13T11:45:42;12.50;82.50
45008;DHT22;30743;52.008;5.644;2022-12-13T11:50:38;12.80;82.20
45008;DHT22;30743;52.008;5.644;2022-12-13T11:53:13;12.90;82.00
45008;DHT22;30743;52.008;5.644;2022-12-13T11:55:45;12.90;82.30
45008;DHT22;30743;52.008;5.644;2022-12-13T11:58:24;12.80;81.20
45008;DHT22;30743;52.008;5.644;2022-12-13T12:01:11;12.60;82.60
45008;DHT22;30743;52.008;5.644;2022-12-13T12:03:45;12.50;82.60
45008;DHT22;30743;52.008;5.644;2022-12-13T12:06:19;12.60;82.60
45008;DHT22;30743;52.008;5.644;2022-12-13T12:08:58;12.70;82.30
45008;DHT22;30743;52.008;5.644;2022-12-13T12:14:26;13.00;82.60
45008;DHT22;30743;52.008;5.644;2022-12-13T12:16:59;13.10;81.30
45008;DHT22;30743;52.008;5.644;2022-12-13T12:19:29;13.20;81.60
45008;DHT22;30743;52.008;5.644;2022-12-13T12:28:06;13.30;79.50
45008;DHT22;30743;52.008;5.644;2022-12-13T12:30:44;13.20;79.20
45008;DHT22;30743;52.008;5.644;2022-12-13T12:44:52;11.90;81.60
45008;DHT22;30743;52.008;5.644;2022-12-13T12:50:34;11.70;83.30
45008;DHT22;30743;52.008;5.644;2022-12-13T12:53:20;11.80;82.40
45008;DHT22;30743;52.008;5.644;2022-12-13T12:58:43;12.10;82.90
45008;DHT22;30743;52.008;5.644;2022-12-13T13:03:53;12.30;83.00
45008;DHT22;30743;52.008;5.644;2022-12-13T13:06:34;12.40;82.10
45008;DHT22;30743;52.008;5.644;2022-12-13T13:09:06;12.70;82.20
45008;DHT22;30743;52.008;5.644;2022-12-13T13:11:36;13.40;82.20
45008;DHT22;30743;52.008;5.644;2022-12-13T13:14:29;14.00;80.30
45008;DHT22;30743;52.008;5.644;2022-12-13T13:16:56;14.20;79.20
45008;DHT22;30743;52.008;5.644;2022-12-13T13:22:00;14.20;78.40
45008;DHT22;30743;52.008;5.644;2022-12-13T13:24:27;14.20;78.20
45008;DHT22;30743;52.008;5.644;2022-12-13T13:29:40;13.90;77.90
45008;DHT22;30743;52.008;5.644;2022-12-13T13:43:05;12.00;80.60
45008;DHT22;30743;52.008;5.644;2022-12-13T13:51:50;10.90;83.40
45008;DHT22;30743;52.008;5.644;2022-12-13T13:54:51;10.50;84.60
45008;DHT22;30743;52.008;5.644;2022-12-13T13:57:36;10.20;85.10
45008;DHT22;30743;52.008;5.644;2022-12-13T14:00:34;9.90;85.50
45008;DHT22;30743;52.008;5.644;2022-12-13T14:03:28;9.50;87.00
45008;DHT22;30743;52.008;5.644;2022-12-13T14:09:10;9.00;88.50
45008;DHT22;30743;52.008;5.644;2022-12-13T14:22:56;8.20;90.40
45008;DHT22;30743;52.008;5.644;2022-12-13T14:28:54;8.00;90.60
45008;DHT22;30743;52.008;5.644;2022-12-13T14:31:32;7.90;90.60
45008;DHT22;30743;52.008;5.644;2022-12-13T14:33:59;7.80;90.70
45008;DHT22;30743;52.008;5.644;2022-12-13T14:36:28;7.70;90.80
45008;DHT22;30743;52.008;5.644;2022-12-13T14:39:02;7.50;90.90
45008;DHT22;30743;52.008;5.644;2022-12-13T14:41:29;7.40;90.90
45008;DHT22;30743;52.008;5.644;2022-12-13T14:43:54;7.30;91.10
45008;DHT22;30743;52.008;5.644;2022-12-13T14:46:20;7.30;91.10
45008;DHT22;30743;52.008;5.644;2022-12-13T14:48:48;7.10;91.50
45008;DHT22;30743;52.008;5.644;2022-12-13T14:51:35;7.10;91.60
45008;DHT22;30743;52.008;5.644;2022-12-13T14:54:04;7.10;91.50
45008;DHT22;30743;52.008;5.644;2022-12-13T14:56:29;7.00;91.70
45008;DHT22;30743;52.008;5.644;2022-12-13T14:59:00;7.00;91.70
45008;DHT22;30743;52.008;5.644;2022-12-13T15:01:34;6.90;91.70
45008;DHT22;30743;52.008;5.644;2022-12-13T15:04:27;6.90;91.70
45008;DHT22;30743;52.008;5.644;2022-12-13T15:07:14;6.80;91.80
45008;DHT22;30743;52.008;5.644;2022-12-13T15:09:43;6.60;92.00
45008;DHT22;30743;52.008;5.644;2022-12-13T15:12:12;6.50;92.20
45008;DHT22;30743;52.008;5.644;2022-12-13T15:14:42;6.50;92.40
45008;DHT22;30743;52.008;5.644;2022-12-13T15:19:46;6.60;92.50
45008;DHT22;30743;52.008;5.644;2022-12-13T15:22:14;6.60;92.50
45008;DHT22;30743;52.008;5.644;2022-12-13T15:24:41;6.60;92.50
45008;DHT22;30743;52.008;5.644;2022-12-13T15:27:12;6.70;92.50
45008;DHT22;30743;52.008;5.644;2022-12-13T15:29:39;6.80;92.50
45008;DHT22;30743;52.008;5.644;2022-12-13T15:32:11;6.90;92.50
45008;DHT22;30743;52.008;5.644;2022-12-13T15:34:37;6.90;92.40
45008;DHT22;30743;52.008;5.644;2022-12-13T15:39:38;7.10;92.70
45008;DHT22;30743;52.008;5.644;2022-12-13T15:42:22;7.20;92.30
45008;DHT22;30743;52.008;5.644;2022-12-13T15:45:00;7.20;92.20
45008;DHT22;30743;52.008;5.644;2022-12-13T15:47:26;7.30;92.10
45008;DHT22;30743;52.008;5.644;2022-12-13T15:49:57;7.30;92.00
45008;DHT22;30743;52.008;5.644;2022-12-13T15:52:37;7.40;92.00
45008;DHT22;30743;52.008;5.644;2022-12-13T16:03:16;7.60;91.60
45008;DHT22;30743;52.008;5.644;2022-12-13T16:05:55;7.60;91.50
45008;DHT22;30743;52.008;5.644;2022-12-13T16:08:30;7.60;91.50
45008;DHT22;30743;52.008;5.644;2022-12-13T16:10:57;7.60;91.40
45008;DHT22;30743;52.008;5.644;2022-12-13T16:13:34;7.60;91.40
45008;DHT22;30743;52.008;5.644;2022-12-13T16:16:28;7.60;91.40
45008;DHT22;30743;52.008;5.644;2022-12-13T16:18:56;7.70;91.30
45008;DHT22;30743;52.008;5.644;2022-12-13T16:21:22;7.70;91.30
45008;DHT22;30743;52.008;5.644;2022-12-13T16:23:48;7.60;91.20
45008;DHT22;30743;52.008;5.644;2022-12-13T16:26:14;7.60;91.20
45008;DHT22;30743;52.008;5.644;2022-12-13T16:28:40;7.70;91.20
45008;DHT22;30743;52.008;5.644;2022-12-13T16:31:15;7.60;91.10
45008;DHT22;30743;52.008;5.644;2022-12-13T16:33:41;7.70;91.10
45008;DHT22;30743;52.008;5.644;2022-12-13T16:36:08;7.70;91.10
45008;DHT22;30743;52.008;5.644;2022-12-13T16:38:34;7.60;91.10
45008;DHT22;30743;52.008;5.644;2022-12-13T16:41:00;7.70;91.10
45008;DHT22;30743;52.008;5.644;2022-12-13T16:43:26;7.70;91.10
45008;DHT22;30743;52.008;5.644;2022-12-13T16:45:53;7.70;91.10
45008;DHT22;30743;52.008;5.644;2022-12-13T16:48:19;7.70;91.10
45008;DHT22;30743;52.008;5.644;2022-12-13T16:50:48;7.70;91.00
45008;DHT22;30743;52.008;5.644;2022-12-13T16:53:17;7.70;91.10
45008;DHT22;30743;52.008;5.644;2022-12-13T16:55:44;7.70;91.00
45008;DHT22;30743;52.008;5.644;2022-12-13T16:58:12;7.70;91.00
45008;DHT22;30743;52.008;5.644;2022-12-13T17:00:38;7.70;90.90
45008;DHT22;30743;52.008;5.644;2022-12-13T17:03:04;7.70;91.00
45008;DHT22;30743;52.008;5.644;2022-12-13T17:05:32;7.70;90.90
45008;DHT22;30743;52.008;5.644;2022-12-13T17:07:58;7.70;90.90
45008;DHT22;30743;52.008;5.644;2022-12-13T17:10:25;7.70;90.80
45008;DHT22;30743;52.008;5.644;2022-12-13T17:12:51;7.60;90.80
45008;DHT22;30743;52.008;5.644;2022-12-13T17:15:17;7.60;90.80
45008;DHT22;30743;52.008;5.644;2022-12-13T17:17:44;7.60;90.80
45008;DHT22;30743;52.008;5.644;2022-12-13T17:20:12;7.70;90.80
45008;DHT22;30743;52.008;5.644;2022-12-13T17:22:39;7.60;90.80
45008;DHT22;30743;52.008;5.644;2022-12-13T17:25:05;7.60;90.80
45008;DHT22;30743;52.008;5.644;2022-12-13T17:27:31;7.60;90.80
45008;DHT22;30743;52.008;5.644;2022-12-13T17:29:57;7.70;90.70
45008;DHT22;30743;52.008;5.644;2022-12-13T17:32:24;7.70;90.70
45008;DHT22;30743;52.008;5.644;2022-12-13T17:34:50;7.60;90.50
45008;DHT22;30743;52.008;5.644;2022-12-13T17:37:16;7.60;90.50
45008;DHT22;30743;52.008;5.644;2022-12-13T17:39:41;7.60;90.40
45008;DHT22;30743;52.008;5.644;2022-12-13T17:42:07;7.60;90.50
45008;DHT22;30743;52.008;5.644;2022-12-13T17:44:32;7.60;90.50
45008;DHT22;30743;52.008;5.644;2022-12-13T17:46:58;7.60;90.50
45008;DHT22;30743;52.008;5.644;2022-12-13T17:49:24;7.70;90.60
45008;DHT22;30743;52.008;5.644;2022-12-13T17:51:50;7.60;90.50
45008;DHT22;30743;52.008;5.644;2022-12-13T17:54:18;7.60;90.50
45008;DHT22;30743;52.008;5.644;2022-12-13T17:56:44;7.60;90.50